sensor_id;sensor_type;location;lat;lon;timestamp;P1;durP1;ratioP1;P2;durP2;ratioP2
14603;SDS011;7388;51.078;13.740;2023-03-11T00:02:16;1.20;;;0.57;;
14603;SDS011;7388;51.078;13.740;2023-03-11T00:04:43;1.88;;;0.80;;
14603;SDS011;7388;51.078;13.740;2023-03-11T00:07:09;1.53;;;0.70;;
14603;SDS011;7388;51.078;13.740;2023-03-11T00:09:35;1.17;;;0.60;;
14603;SDS011;7388;51.078;13.740;2023-03-11T00:12:01;1.20;;;0.73;;
14603;SDS011;7388;51.078;13.740;2023-03-11T00:14:27;1.42;;;0.90;;
14603;SDS011;7388;51.078;13.740;2023-03-11T00:16:53;1.57;;;1.03;;
14603;SDS011;7388;51.078;13.740;2023-03-11T00:19:19;1.30;;;0.60;;
14603;SDS011;7388;51.078;13.740;2023-03-11T00:21:45;1.52;;;0.77;;
14603;SDS011;7388;51.078;13.740;2023-03-11T00:24:11;1.43;;;0.60;;
14603;SDS011;7388;51.078;13.740;2023-03-11T00:26:37;1.10;;;0.70;;
14603;SDS011;7388;51.078;13.740;2023-03-11T00:29:02;1.80;;;0.70;;
14603;SDS011;7388;51.078;13.740;2023-03-11T00:31:28;1.30;;;0.70;;
14603;SDS011;7388;51.078;13.740;2023-03-11T00:33:54;2.13;;;0.87;;
14603;SDS011;7388;51.078;13.740;2023-03-11T00:36:31;1.45;;;0.70;;
14603;SDS011;7388;51.078;13.740;2023-03-11T00:39:00;1.50;;;0.70;;
14603;SDS011;7388;51.078;13.740;2023-03-11T00:41:30;1.60;;;0.60;;
14603;SDS011;7388;51.078;13.740;2023-03-11T00:43:59;1.25;;;0.70;;
14603;SDS011;7388;51.078;13.740;2023-03-11T00:46:25;1.67;;;0.60;;
14603;SDS011;7388;51.078;13.740;2023-03-11T00:48:52;1.33;;;0.77;;
14603;SDS011;7388;51.078;13.740;2023-03-11T00:51:18;1.23;;;0.70;;
14603;SDS011;7388;51.078;13.740;2023-03-11T00:53:44;1.87;;;1.00;;
14603;SDS011;7388;51.078;13.740;2023-03-11T00:56:11;1.45;;;0.82;;
14603;SDS011;7388;51.078;13.740;2023-03-11T00:58:38;2.45;;;0.60;;
14603;SDS011;7388;51.078;13.740;2023-03-11T01:01:15;1.50;;;1.00;;
14603;SDS011;7388;51.078;13.740;2023-03-11T01:03:42;1.52;;;0.90;;
14603;SDS011;7388;51.078;13.740;2023-03-11T01:06:09;1.90;;;0.88;;
14603;SDS011;7388;51.078;13.740;2023-03-11T01:08:35;1.20;;;0.70;;
14603;SDS011;7388;51.078;13.740;2023-03-11T01:11:02;1.55;;;0.70;;
14603;SDS011;7388;51.078;13.740;2023-03-11T01:13:29;1.38;;;0.70;;
14603;SDS011;7388;51.078;13.740;2023-03-11T01:15:55;1.30;;;0.88;;
14603;SDS011;7388;51.078;13.740;2023-03-11T01:18:21;1.50;;;0.90;;
14603;SDS011;7388;51.078;13.740;2023-03-11T01:20:47;1.25;;;0.70;;
14603;SDS011;7388;51.078;13.740;2023-03-11T01:23:13;1.45;;;0.90;;
14603;SDS011;7388;51.078;13.740;2023-03-11T01:25:40;1.48;;;0.70;;
14603;SDS011;7388;51.078;13.740;2023-03-11T01:28:06;1.17;;;0.73;;
14603;SDS011;7388;51.078;13.740;2023-03-11T01:30:33;1.55;;;0.85;;
14603;SDS011;7388;51.078;13.740;2023-03-11T01:33:00;1.15;;;0.88;;
14603;SDS011;7388;51.078;13.740;2023-03-11T01:35:26;1.27;;;0.80;;
14603;SDS011;7388;51.078;13.740;2023-03-11T01:37:54;1.65;;;1.02;;
14603;SDS011;7388;51.078;13.740;2023-03-11T01:40:23;1.70;;;0.95;;
14603;SDS011;7388;51.078;13.740;2023-03-11T01:42:50;1.33;;;0.65;;
14603;SDS011;7388;51.078;13.740;2023-03-11T01:45:25;1.27;;;0.77;;
14603;SDS011;7388;51.078;13.740;2023-03-11T01:48:04;1.65;;;0.82;;
14603;SDS011;7388;51.078;13.740;2023-03-11T01:50:33;1.63;;;1.15;;
14603;SDS011;7388;51.078;13.740;2023-03-11T01:53:04;1.63;;;0.85;;
14603;SDS011;7388;51.078;13.740;2023-03-11T01:55:31;1.58;;;1.02;;
14603;SDS011;7388;51.078;13.740;2023-03-11T01:57:58;4.55;;;1.35;;
14603;SDS011;7388;51.078;13.740;2023-03-11T02:00:26;1.88;;;1.15;;
14603;SDS011;7388;51.078;13.740;2023-03-11T02:02:52;1.70;;;1.10;;
14603;SDS011;7388;51.078;13.740;2023-03-11T02:05:21;1.95;;;1.20;;
14603;SDS011;7388;51.078;13.740;2023-03-11T02:07:48;4.88;;;1.40;;
14603;SDS011;7388;51.078;13.740;2023-03-11T02:10:16;1.38;;;1.20;;
14603;SDS011;7388;51.078;13.740;2023-03-11T02:12:43;1.77;;;1.27;;
14603;SDS011;7388;51.078;13.740;2023-03-11T02:15:11;1.77;;;1.30;;
14603;SDS011;7388;51.078;13.740;2023-03-11T02:17:37;1.80;;;1.30;;
14603;SDS011;7388;51.078;13.740;2023-03-11T02:20:25;2.08;;;1.58;;
14603;SDS011;7388;51.078;13.740;2023-03-11T02:22:52;1.50;;;0.95;;
14603;SDS011;7388;51.078;13.740;2023-03-11T02:28:07;1.75;;;1.33;;
14603;SDS011;7388;51.078;13.740;2023-03-11T02:30:38;2.40;;;1.70;;
14603;SDS011;7388;51.078;13.740;2023-03-11T02:33:05;3.38;;;1.85;;
14603;SDS011;7388;51.078;13.740;2023-03-11T02:35:32;2.85;;;1.67;;
14603;SDS011;7388;51.078;13.740;2023-03-11T02:37:58;2.03;;;1.50;;
14603;SDS011;7388;51.078;13.740;2023-03-11T02:42:55;2.10;;;1.40;;
14603;SDS011;7388;51.078;13.740;2023-03-11T02:45:24;2.25;;;1.73;;
14603;SDS011;7388;51.078;13.740;2023-03-11T02:47:54;2.38;;;1.60;;
14603;SDS011;7388;51.078;13.740;2023-03-11T02:50:21;2.20;;;1.70;;
14603;SDS011;7388;51.078;13.740;2023-03-11T02:52:49;1.85;;;1.63;;
14603;SDS011;7388;51.078;13.740;2023-03-11T02:55:16;2.35;;;1.80;;
14603;SDS011;7388;51.078;13.740;2023-03-11T02:57:42;2.28;;;1.52;;
14603;SDS011;7388;51.078;13.740;2023-03-11T03:00:09;3.03;;;2.00;;
14603;SDS011;7388;51.078;13.740;2023-03-11T03:02:39;2.70;;;1.67;;
14603;SDS011;7388;51.078;13.740;2023-03-11T03:05:06;2.40;;;1.65;;
14603;SDS011;7388;51.078;13.740;2023-03-11T03:07:32;2.13;;;1.60;;
14603;SDS011;7388;51.078;13.740;2023-03-11T03:09:58;2.67;;;1.93;;
14603;SDS011;7388;51.078;13.740;2023-03-11T03:12:24;2.80;;;1.53;;
14603;SDS011;7388;51.078;13.740;2023-03-11T03:14:50;3.53;;;1.67;;
14603;SDS011;7388;51.078;13.740;2023-03-11T03:17:15;1.90;;;1.50;;
14603;SDS011;7388;51.078;13.740;2023-03-11T03:19:41;2.37;;;1.80;;
14603;SDS011;7388;51.078;13.740;2023-03-11T03:22:07;1.97;;;1.77;;
14603;SDS011;7388;51.078;13.740;2023-03-11T03:24:33;2.40;;;1.70;;
14603;SDS011;7388;51.078;13.740;2023-03-11T03:26:58;2.43;;;2.10;;
14603;SDS011;7388;51.078;13.740;2023-03-11T03:29:24;2.30;;;1.50;;
14603;SDS011;7388;51.078;13.740;2023-03-11T03:31:50;3.57;;;2.70;;
14603;SDS011;7388;51.078;13.740;2023-03-11T03:34:15;2.77;;;1.60;;
14603;SDS011;7388;51.078;13.740;2023-03-11T03:36:41;2.23;;;2.00;;
14603;SDS011;7388;51.078;13.740;2023-03-11T03:39:07;3.50;;;2.10;;
14603;SDS011;7388;51.078;13.740;2023-03-11T03:41:33;2.87;;;2.03;;
14603;SDS011;7388;51.078;13.740;2023-03-11T03:43:59;2.80;;;2.47;;
14603;SDS011;7388;51.078;13.740;2023-03-11T03:46:25;3.30;;;2.38;;
14603;SDS011;7388;51.078;13.740;2023-03-11T03:48:50;3.20;;;2.83;;
14603;SDS011;7388;51.078;13.740;2023-03-11T03:51:16;3.27;;;2.97;;
14603;SDS011;7388;51.078;13.740;2023-03-11T03:53:42;3.20;;;2.50;;
14603;SDS011;7388;51.078;13.740;2023-03-11T03:56:11;4.45;;;3.03;;
14603;SDS011;7388;51.078;13.740;2023-03-11T03:58:39;3.42;;;2.60;;
14603;SDS011;7388;51.078;13.740;2023-03-11T04:01:05;3.45;;;2.75;;
14603;SDS011;7388;51.078;13.740;2023-03-11T04:03:32;4.28;;;3.35;;
14603;SDS011;7388;51.078;13.740;2023-03-11T04:06:05;4.40;;;3.85;;
14603;SDS011;7388;51.078;13.740;2023-03-11T04:08:39;3.95;;;2.75;;
14603;SDS011;7388;51.078;13.740;2023-03-11T04:11:05;3.67;;;3.33;;
14603;SDS011;7388;51.078;13.740;2023-03-11T04:13:31;4.20;;;3.27;;
14603;SDS011;7388;51.078;13.740;2023-03-11T04:15:57;5.05;;;3.78;;
14603;SDS011;7388;51.078;13.740;2023-03-11T04:18:23;4.00;;;3.40;;
14603;SDS011;7388;51.078;13.740;2023-03-11T04:20:48;4.73;;;3.27;;
14603;SDS011;7388;51.078;13.740;2023-03-11T04:23:15;4.05;;;3.60;;
14603;SDS011;7388;51.078;13.740;2023-03-11T04:25:41;4.25;;;3.75;;
14603;SDS011;7388;51.078;13.740;2023-03-11T04:28:06;4.80;;;4.40;;
14603;SDS011;7388;51.078;13.740;2023-03-11T04:30:32;4.57;;;3.80;;
14603;SDS011;7388;51.078;13.740;2023-03-11T04:32:58;5.67;;;4.43;;
14603;SDS011;7388;51.078;13.740;2023-03-11T04:35:23;5.93;;;4.63;;
14603;SDS011;7388;51.078;13.740;2023-03-11T04:37:49;5.13;;;4.30;;
14603;SDS011;7388;51.078;13.740;2023-03-11T04:40:15;5.17;;;4.10;;
14603;SDS011;7388;51.078;13.740;2023-03-11T04:42:41;5.78;;;4.38;;
14603;SDS011;7388;51.078;13.740;2023-03-11T04:45:07;4.60;;;3.77;;
14603;SDS011;7388;51.078;13.740;2023-03-11T04:47:34;7.75;;;5.15;;
14603;SDS011;7388;51.078;13.740;2023-03-11T04:50:00;6.03;;;4.63;;
14603;SDS011;7388;51.078;13.740;2023-03-11T04:52:26;6.17;;;4.70;;
14603;SDS011;7388;51.078;13.740;2023-03-11T04:54:52;5.67;;;4.60;;
14603;SDS011;7388;51.078;13.740;2023-03-11T04:57:17;7.30;;;4.47;;
14603;SDS011;7388;51.078;13.740;2023-03-11T04:59:43;5.47;;;4.70;;
14603;SDS011;7388;51.078;13.740;2023-03-11T05:02:09;6.23;;;4.33;;
14603;SDS011;7388;51.078;13.740;2023-03-11T05:04:35;6.90;;;5.77;;
14603;SDS011;7388;51.078;13.740;2023-03-11T05:07:00;5.37;;;4.20;;
14603;SDS011;7388;51.078;13.740;2023-03-11T05:09:26;5.50;;;4.32;;
14603;SDS011;7388;51.078;13.740;2023-03-11T05:11:52;5.40;;;4.40;;
14603;SDS011;7388;51.078;13.740;2023-03-11T05:14:18;5.20;;;4.20;;
14603;SDS011;7388;51.078;13.740;2023-03-11T05:16:44;5.40;;;4.90;;
14603;SDS011;7388;51.078;13.740;2023-03-11T05:19:10;4.80;;;4.17;;
14603;SDS011;7388;51.078;13.740;2023-03-11T05:21:56;4.90;;;4.40;;
14603;SDS011;7388;51.078;13.740;2023-03-11T05:24:26;6.53;;;4.18;;
14603;SDS011;7388;51.078;13.740;2023-03-11T05:26:53;6.35;;;5.10;;
14603;SDS011;7388;51.078;13.740;2023-03-11T05:29:19;6.95;;;5.40;;
14603;SDS011;7388;51.078;13.740;2023-03-11T05:31:45;6.85;;;5.50;;
14603;SDS011;7388;51.078;13.740;2023-03-11T05:34:11;7.03;;;5.57;;
14603;SDS011;7388;51.078;13.740;2023-03-11T05:36:37;5.00;;;4.22;;
14603;SDS011;7388;51.078;13.740;2023-03-11T05:39:03;6.60;;;4.73;;
14603;SDS011;7388;51.078;13.740;2023-03-11T05:41:29;5.70;;;4.93;;
14603;SDS011;7388;51.078;13.740;2023-03-11T05:43:55;6.45;;;5.25;;
14603;SDS011;7388;51.078;13.740;2023-03-11T05:46:21;6.37;;;5.47;;
14603;SDS011;7388;51.078;13.740;2023-03-11T05:48:47;6.90;;;5.70;;
14603;SDS011;7388;51.078;13.740;2023-03-11T05:51:13;6.07;;;4.70;;
14603;SDS011;7388;51.078;13.740;2023-03-11T05:53:41;6.03;;;5.30;;
14603;SDS011;7388;51.078;13.740;2023-03-11T05:56:12;7.10;;;5.28;;
14603;SDS011;7388;51.078;13.740;2023-03-11T05:58:38;5.22;;;4.72;;
14603;SDS011;7388;51.078;13.740;2023-03-11T06:01:10;6.23;;;4.97;;
14603;SDS011;7388;51.078;13.740;2023-03-11T06:03:38;6.45;;;5.75;;
14603;SDS011;7388;51.078;13.740;2023-03-11T06:06:05;7.45;;;6.32;;
14603;SDS011;7388;51.078;13.740;2023-03-11T06:08:32;7.20;;;5.50;;
14603;SDS011;7388;51.078;13.740;2023-03-11T06:11:03;6.22;;;5.55;;
14603;SDS011;7388;51.078;13.740;2023-03-11T06:13:30;6.63;;;5.65;;
14603;SDS011;7388;51.078;13.740;2023-03-11T06:15:56;8.20;;;5.95;;
14603;SDS011;7388;51.078;13.740;2023-03-11T06:18:22;7.53;;;6.00;;
14603;SDS011;7388;51.078;13.740;2023-03-11T06:20:50;7.55;;;5.70;;
14603;SDS011;7388;51.078;13.740;2023-03-11T06:23:22;8.75;;;6.63;;
14603;SDS011;7388;51.078;13.740;2023-03-11T06:25:55;6.50;;;5.80;;
14603;SDS011;7388;51.078;13.740;2023-03-11T06:28:20;10.85;;;7.60;;
14603;SDS011;7388;51.078;13.740;2023-03-11T06:30:46;10.60;;;8.00;;
14603;SDS011;7388;51.078;13.740;2023-03-11T06:33:12;9.57;;;7.57;;
14603;SDS011;7388;51.078;13.740;2023-03-11T06:35:39;12.38;;;7.05;;
14603;SDS011;7388;51.078;13.740;2023-03-11T06:38:05;7.93;;;6.78;;
14603;SDS011;7388;51.078;13.740;2023-03-11T06:40:32;9.00;;;7.05;;
14603;SDS011;7388;51.078;13.740;2023-03-11T06:42:58;11.50;;;8.27;;
14603;SDS011;7388;51.078;13.740;2023-03-11T06:45:24;8.47;;;7.47;;
14603;SDS011;7388;51.078;13.740;2023-03-11T06:47:50;9.30;;;7.25;;
14603;SDS011;7388;51.078;13.740;2023-03-11T06:50:16;8.87;;;6.50;;
14603;SDS011;7388;51.078;13.740;2023-03-11T06:52:41;12.57;;;8.27;;
14603;SDS011;7388;51.078;13.740;2023-03-11T06:55:07;10.33;;;7.40;;
14603;SDS011;7388;51.078;13.740;2023-03-11T06:57:33;8.68;;;7.50;;
14603;SDS011;7388;51.078;13.740;2023-03-11T06:59:59;9.60;;;7.77;;
14603;SDS011;7388;51.078;13.740;2023-03-11T07:02:25;8.73;;;7.47;;
14603;SDS011;7388;51.078;13.740;2023-03-11T07:04:51;9.73;;;7.20;;
14603;SDS011;7388;51.078;13.740;2023-03-11T07:07:16;6.83;;;6.13;;
14603;SDS011;7388;51.078;13.740;2023-03-11T07:09:42;10.37;;;8.20;;
14603;SDS011;7388;51.078;13.740;2023-03-11T07:12:08;11.03;;;6.80;;
14603;SDS011;7388;51.078;13.740;2023-03-11T07:14:34;11.10;;;7.63;;
14603;SDS011;7388;51.078;13.740;2023-03-11T07:17:00;9.30;;;7.60;;
14603;SDS011;7388;51.078;13.740;2023-03-11T07:19:26;10.82;;;8.23;;
14603;SDS011;7388;51.078;13.740;2023-03-11T07:21:51;10.67;;;7.83;;
14603;SDS011;7388;51.078;13.740;2023-03-11T07:24:17;9.93;;;7.73;;
14603;SDS011;7388;51.078;13.740;2023-03-11T07:26:43;9.53;;;6.93;;
14603;SDS011;7388;51.078;13.740;2023-03-11T07:29:09;12.43;;;8.57;;
14603;SDS011;7388;51.078;13.740;2023-03-11T07:31:34;10.20;;;6.73;;
14603;SDS011;7388;51.078;13.740;2023-03-11T07:34:02;10.20;;;7.35;;
14603;SDS011;7388;51.078;13.740;2023-03-11T07:36:30;11.43;;;8.07;;
14603;SDS011;7388;51.078;13.740;2023-03-11T07:38:57;10.57;;;8.75;;
14603;SDS011;7388;51.078;13.740;2023-03-11T07:41:25;13.10;;;7.90;;
14603;SDS011;7388;51.078;13.740;2023-03-11T07:43:54;10.88;;;8.10;;
14603;SDS011;7388;51.078;13.740;2023-03-11T07:46:22;10.40;;;8.32;;
14603;SDS011;7388;51.078;13.740;2023-03-11T07:48:49;9.80;;;7.82;;
14603;SDS011;7388;51.078;13.740;2023-03-11T07:51:17;12.25;;;8.00;;
14603;SDS011;7388;51.078;13.740;2023-03-11T07:53:47;9.40;;;8.38;;
14603;SDS011;7388;51.078;13.740;2023-03-11T07:56:14;11.57;;;7.45;;
14603;SDS011;7388;51.078;13.740;2023-03-11T07:58:41;11.07;;;8.18;;
14603;SDS011;7388;51.078;13.740;2023-03-11T08:01:09;9.13;;;7.00;;
14603;SDS011;7388;51.078;13.740;2023-03-11T08:03:36;8.57;;;7.63;;
14603;SDS011;7388;51.078;13.740;2023-03-11T08:06:10;9.95;;;6.90;;
14603;SDS011;7388;51.078;13.740;2023-03-11T08:08:39;10.52;;;7.80;;
14603;SDS011;7388;51.078;13.740;2023-03-11T08:11:05;12.50;;;8.35;;
14603;SDS011;7388;51.078;13.740;2023-03-11T08:13:31;9.70;;;6.80;;
14603;SDS011;7388;51.078;13.740;2023-03-11T08:15:57;13.30;;;8.05;;
14603;SDS011;7388;51.078;13.740;2023-03-11T08:18:23;12.27;;;8.55;;
14603;SDS011;7388;51.078;13.740;2023-03-11T08:20:49;11.47;;;7.77;;
14603;SDS011;7388;51.078;13.740;2023-03-11T08:23:15;11.60;;;8.23;;
14603;SDS011;7388;51.078;13.740;2023-03-11T08:25:40;10.33;;;8.10;;
14603;SDS011;7388;51.078;13.740;2023-03-11T08:28:06;10.73;;;8.13;;
14603;SDS011;7388;51.078;13.740;2023-03-11T08:30:33;12.57;;;8.23;;
14603;SDS011;7388;51.078;13.740;2023-03-11T08:32:59;14.35;;;8.30;;
14603;SDS011;7388;51.078;13.740;2023-03-11T08:35:25;9.77;;;8.65;;
14603;SDS011;7388;51.078;13.740;2023-03-11T08:37:51;11.33;;;8.10;;
14603;SDS011;7388;51.078;13.740;2023-03-11T08:40:17;13.32;;;9.60;;
14603;SDS011;7388;51.078;13.740;2023-03-11T08:42:43;10.98;;;8.73;;
14603;SDS011;7388;51.078;13.740;2023-03-11T08:45:09;12.67;;;8.27;;
14603;SDS011;7388;51.078;13.740;2023-03-11T08:47:36;13.55;;;9.43;;
14603;SDS011;7388;51.078;13.740;2023-03-11T08:50:04;10.80;;;8.80;;
14603;SDS011;7388;51.078;13.740;2023-03-11T08:52:32;12.05;;;9.18;;
14603;SDS011;7388;51.078;13.740;2023-03-11T08:54:58;11.23;;;8.47;;
14603;SDS011;7388;51.078;13.740;2023-03-11T08:57:24;13.00;;;9.60;;
14603;SDS011;7388;51.078;13.740;2023-03-11T08:59:50;12.20;;;9.10;;
14603;SDS011;7388;51.078;13.740;2023-03-11T09:02:15;14.80;;;8.70;;
14603;SDS011;7388;51.078;13.740;2023-03-11T09:04:41;11.10;;;9.10;;
14603;SDS011;7388;51.078;13.740;2023-03-11T09:07:07;11.47;;;7.60;;
14603;SDS011;7388;51.078;13.740;2023-03-11T09:09:35;13.20;;;8.85;;
14603;SDS011;7388;51.078;13.740;2023-03-11T09:12:01;11.63;;;8.30;;
14603;SDS011;7388;51.078;13.740;2023-03-11T09:14:26;11.63;;;8.70;;
14603;SDS011;7388;51.078;13.740;2023-03-11T09:16:52;9.10;;;7.77;;
14603;SDS011;7388;51.078;13.740;2023-03-11T09:19:18;11.23;;;8.40;;
14603;SDS011;7388;51.078;13.740;2023-03-11T09:21:44;8.65;;;7.43;;
14603;SDS011;7388;51.078;13.740;2023-03-11T09:24:09;11.47;;;8.70;;
14603;SDS011;7388;51.078;13.740;2023-03-11T09:26:35;9.67;;;8.00;;
14603;SDS011;7388;51.078;13.740;2023-03-11T09:29:01;12.87;;;8.80;;
14603;SDS011;7388;51.078;13.740;2023-03-11T09:31:26;10.60;;;7.67;;
14603;SDS011;7388;51.078;13.740;2023-03-11T09:33:52;12.87;;;8.40;;
14603;SDS011;7388;51.078;13.740;2023-03-11T09:36:20;12.57;;;9.77;;
14603;SDS011;7388;51.078;13.740;2023-03-11T09:38:46;12.63;;;8.95;;
14603;SDS011;7388;51.078;13.740;2023-03-11T09:43:46;13.23;;;8.55;;
14603;SDS011;7388;51.078;13.740;2023-03-11T09:51:55;10.63;;;8.75;;
14603;SDS011;7388;51.078;13.740;2023-03-11T09:54:36;19.23;;;8.93;;
14603;SDS011;7388;51.078;13.740;2023-03-11T09:57:04;15.98;;;9.23;;
14603;SDS011;7388;51.078;13.740;2023-03-11T09:59:33;10.68;;;8.18;;
14603;SDS011;7388;51.078;13.740;2023-03-11T10:02:02;14.40;;;8.70;;
